createdAt,value
2022-09-21T00:00:54.492Z,97376.22
2022-09-21T00:04:00.114Z,97376.69
2022-09-21T00:06:56.918Z,97375.06
2022-09-21T00:09:53.708Z,97371.56
2022-09-21T00:12:50.501Z,97380.00
2022-09-21T00:15:47.337Z,97369.50
2022-09-21T00:18:44.913Z,97384.09
2022-09-21T00:21:42.194Z,97375.28
2022-09-21T00:24:38.974Z,97376.69
2022-09-21T00:27:35.761Z,97381.47
2022-09-21T00:30:32.591Z,97374.03
2022-09-21T00:33:29.372Z,97373.19
2022-09-21T00:36:27.513Z,97371.41
2022-09-21T00:39:24.314Z,97374.47
2022-09-21T00:42:29.087Z,97376.28
2022-09-21T00:45:26.971Z,97386.50
2022-09-21T00:48:24.096Z,97380.25
2022-09-21T00:51:21.185Z,97386.78
2022-09-21T00:54:28.979Z,97387.19
2022-09-21T00:57:31.014Z,97391.94
2022-09-21T01:00:27.874Z,97390.72
2022-09-21T01:03:24.679Z,97383.81
2022-09-21T01:06:22.434Z,97389.19
2022-09-21T01:09:19.704Z,97391.63
2022-09-21T01:12:35.231Z,97388.63
2022-09-21T01:15:47.040Z,97384.53
2022-09-21T01:18:58.719Z,97396.38
2022-09-21T01:22:14.057Z,97395.13
2022-09-21T01:25:33.034Z,97399.47
2022-09-21T01:28:57.132Z,97390.72
2022-09-21T01:32:05.397Z,97389.56
2022-09-21T01:35:26.905Z,97394.97
2022-09-21T01:38:33.212Z,97392.81
2022-09-21T01:41:32.378Z,97392.09
2022-09-21T01:44:33.301Z,97396.34
2022-09-21T01:47:31.607Z,97393.28
2022-09-21T01:50:37.885Z,97394.63
2022-09-21T01:53:45.741Z,97396.13
2022-09-21T01:56:52.168Z,97401.53
2022-09-21T01:59:58.833Z,97394.19
2022-09-21T02:03:27.185Z,97398.91
2022-09-21T02:06:28.116Z,97398.81
2022-09-21T02:09:25.641Z,97401.44
2022-09-21T02:12:23.033Z,97392.94
2022-09-21T02:15:27.558Z,97399.69
2022-09-21T02:18:47.118Z,97396.16
2022-09-21T02:22:17.852Z,97405.00
2022-09-21T02:25:42.257Z,97402.38
2022-09-21T02:29:12.588Z,97397.69
2022-09-21T02:32:39.580Z,97404.47
2022-09-21T02:35:58.644Z,97401.06
2022-09-21T02:39:07.298Z,97403.25
2022-09-21T02:42:16.154Z,97397.16
2022-09-21T02:45:21.963Z,97398.75
2022-09-21T02:48:34.691Z,97402.91
2022-09-21T02:51:37.894Z,97403.81
2022-09-21T02:54:36.666Z,97398.34
2022-09-21T02:57:33.466Z,97393.97
2022-09-21T03:00:30.659Z,97401.47
2022-09-21T03:03:27.596Z,97398.78
2022-09-21T03:06:24.549Z,97399.03
2022-09-21T03:09:24.241Z,97401.13
2022-09-21T03:12:22.167Z,97399.66
2022-09-21T03:15:18.977Z,97402.41
2022-09-21T03:18:16.130Z,97400.53
2022-09-21T03:21:13.331Z,97400.38
2022-09-21T03:24:10.136Z,97402.75
2022-09-21T03:27:08.850Z,97404.53
2022-09-21T03:30:06.193Z,97404.59
2022-09-21T03:33:03.491Z,97414.38
2022-09-21T03:36:00.313Z,97423.75
2022-09-21T03:38:57.115Z,97422.50
2022-09-21T03:41:56.453Z,97422.00
2022-09-21T03:44:53.265Z,97424.09
2022-09-21T03:47:50.274Z,97423.13
2022-09-21T03:50:47.078Z,97421.75
2022-09-21T03:53:43.876Z,97421.66
2022-09-21T03:56:40.689Z,97423.50
2022-09-21T03:59:37.492Z,97422.97
2022-09-21T04:02:35.009Z,97429.53
2022-09-21T04:05:32.117Z,97431.94
2022-09-21T04:08:28.903Z,97434.25
2022-09-21T04:11:25.719Z,97440.91
2022-09-21T04:14:23.340Z,97440.63
2022-09-21T04:17:20.495Z,97433.25
2022-09-21T04:20:17.405Z,97440.16
2022-09-21T04:23:14.200Z,97437.97
2022-09-21T04:26:23.012Z,97434.28
2022-09-21T04:29:19.818Z,97437.94
2022-09-21T04:32:16.618Z,97442.94
2022-09-21T04:35:13.431Z,97439.66
2022-09-21T04:38:10.335Z,97437.53
2022-09-21T04:41:07.209Z,97447.88
2022-09-21T04:44:04.214Z,97437.09
2022-09-21T04:47:01.104Z,97447.75
2022-09-21T04:49:58.019Z,97448.00
2022-09-21T04:52:54.804Z,97446.16
2022-09-21T04:55:51.685Z,97447.06
2022-09-21T04:58:48.503Z,97447.88
2022-09-21T05:01:45.375Z,97448.19
2022-09-21T05:04:42.247Z,97453.06
2022-09-21T05:07:39.065Z,97456.31
2022-09-21T05:10:35.972Z,97457.31
2022-09-21T05:13:33.043Z,97459.81
2022-09-21T05:16:29.837Z,97455.84
2022-09-21T05:19:26.669Z,97457.97
2022-09-21T05:22:23.897Z,97453.59
2022-09-21T05:25:20.800Z,97460.06
2022-09-21T05:28:19.179Z,97456.06
2022-09-21T05:31:41.377Z,97456.75
2022-09-21T05:35:06.920Z,97458.28
2022-09-21T05:38:20.035Z,97466.56
2022-09-21T05:41:17.212Z,97474.97
2022-09-21T05:44:15.406Z,97469.53
2022-09-21T05:47:27.097Z,97477.50
2022-09-21T05:51:16.806Z,97474.31
2022-09-21T05:54:54.575Z,97480.34
2022-09-21T05:57:58.328Z,97488.47
2022-09-21T06:01:15.272Z,97484.78
2022-09-21T06:04:13.175Z,97482.19
2022-09-21T06:07:09.989Z,97490.19
2022-09-21T06:10:08.797Z,97492.16
2022-09-21T06:13:05.611Z,97498.91
2022-09-21T06:16:03.674Z,97485.03
2022-09-21T06:19:00.493Z,97501.13
2022-09-21T06:21:57.300Z,97495.31
2022-09-21T06:24:54.146Z,97494.19
2022-09-21T06:27:50.977Z,97501.59
2022-09-21T06:30:56.370Z,97494.13
2022-09-21T06:33:53.870Z,97488.22
2022-09-21T06:36:50.672Z,97487.59
2022-09-21T06:39:47.486Z,97492.75
2022-09-21T06:42:44.286Z,97499.16
2022-09-21T06:45:41.099Z,97494.59
2022-09-21T06:48:37.988Z,97479.84
2022-09-21T06:51:36.301Z,97475.34
2022-09-21T06:54:33.110Z,97477.09
2022-09-21T06:57:31.655Z,97471.63
2022-09-21T07:00:28.666Z,97473.53
2022-09-21T07:03:25.556Z,97470.31
2022-09-21T07:06:22.555Z,97479.59
2022-09-21T07:12:36.584Z,97476.34
2022-09-21T07:15:33.596Z,97482.38
2022-09-21T07:18:36.060Z,97490.66
2022-09-21T07:21:39.616Z,97488.13
2022-09-21T07:24:36.667Z,97488.69
2022-09-21T07:27:34.663Z,97493.16
2022-09-21T07:30:31.563Z,97493.59
2022-09-21T07:33:31.626Z,97492.72
2022-09-21T07:36:30.756Z,97491.69
2022-09-21T07:39:27.702Z,97491.78
2022-09-21T07:42:25.573Z,97493.97
2022-09-21T07:45:22.490Z,97499.59
2022-09-21T07:48:19.352Z,97492.50
2022-09-21T07:51:16.584Z,97488.13
2022-09-21T07:54:15.145Z,97486.53
2022-09-21T07:57:30.687Z,97493.97
2022-09-21T08:00:32.586Z,97475.25
2022-09-21T08:03:29.553Z,97481.66
2022-09-21T08:06:30.533Z,97483.25
2022-09-21T08:09:27.374Z,97478.50
2022-09-21T08:12:24.321Z,97486.22
2022-09-21T08:15:44.402Z,97487.00
2022-09-21T08:18:39.949Z,97493.13
2022-09-21T08:21:36.735Z,97497.44
2022-09-21T08:24:35.140Z,97497.19
2022-09-21T08:27:32.006Z,97498.53
2022-09-21T08:30:31.029Z,97495.84
2022-09-21T08:33:30.068Z,97503.63
2022-09-21T08:36:27.542Z,97501.81
2022-09-21T08:39:24.462Z,97501.44
2022-09-21T08:42:48.797Z,97505.72
2022-09-21T08:45:47.577Z,97506.97
2022-09-21T08:49:01.117Z,97500.84
2022-09-21T08:52:14.326Z,97482.19
2022-09-21T08:55:20.630Z,97465.09
2022-09-21T08:58:23.969Z,97468.56
2022-09-21T09:01:21.788Z,97468.31
2022-09-21T09:04:24.332Z,97472.63
2022-09-21T09:08:19.401Z,97466.81
2022-09-21T09:11:54.715Z,97473.13
2022-09-21T09:15:28.795Z,97466.59
2022-09-21T09:18:51.416Z,97478.53
2022-09-21T09:21:48.499Z,97471.00
2022-09-21T09:24:52.195Z,97484.72
2022-09-21T09:27:59.078Z,97489.56
2022-09-21T09:31:13.721Z,97491.50
2022-09-21T09:34:23.062Z,97490.34
2022-09-21T09:37:24.771Z,97485.53
2022-09-21T09:40:51.183Z,97491.94
2022-09-21T09:44:34.075Z,97490.06
2022-09-21T09:47:52.516Z,97486.28
2022-09-21T09:50:49.428Z,97487.84
2022-09-21T09:53:46.625Z,97485.44
2022-09-21T09:56:43.732Z,97492.91
2022-09-21T09:59:55.355Z,97491.31
2022-09-21T10:02:56.131Z,97485.56
2022-09-21T10:05:54.239Z,97486.63
2022-09-21T10:08:53.151Z,97490.69
2022-09-21T10:11:49.976Z,97484.66
2022-09-21T10:15:00.016Z,97476.19
2022-09-21T10:18:19.910Z,97486.59
2022-09-21T10:21:37.430Z,97475.06
2022-09-21T10:24:40.695Z,97480.69
2022-09-21T10:27:42.851Z,97473.13
2022-09-21T10:30:39.703Z,97466.63
2022-09-21T10:34:06.360Z,97467.53
2022-09-21T10:37:30.592Z,97463.75
2022-09-21T10:40:30.745Z,97466.63
2022-09-21T10:43:43.493Z,97466.16
2022-09-21T10:46:40.883Z,97458.03
2022-09-21T10:49:42.946Z,97469.03
2022-09-21T10:52:45.949Z,97480.09
2022-09-21T10:56:12.027Z,97472.63
2022-09-21T10:59:32.765Z,97471.31
2022-09-21T11:02:39.034Z,97468.78
2022-09-21T11:05:51.540Z,97474.22
2022-09-21T11:09:20.924Z,97468.19
2022-09-21T11:12:42.570Z,97462.44
2022-09-21T11:16:03.867Z,97464.41
2022-09-21T11:19:44.002Z,97460.28
2022-09-21T11:23:30.598Z,97453.75
2022-09-21T11:26:51.691Z,97442.66
2022-09-21T11:29:55.123Z,97441.19
2022-09-21T11:33:35.096Z,97433.84
2022-09-21T11:37:09.941Z,97424.41
2022-09-21T11:40:21.868Z,97430.53
2022-09-21T11:44:00.480Z,97431.22
2022-09-21T11:47:28.883Z,97418.72
2022-09-21T11:51:06.322Z,97423.66
2022-09-21T11:54:44.407Z,97429.84
2022-09-21T11:58:02.152Z,97428.09
2022-09-21T12:02:19.388Z,97418.31
2022-09-21T12:05:45.145Z,97413.69
2022-09-21T12:09:03.565Z,97419.13
2022-09-21T12:12:32.569Z,97408.31
2022-09-21T12:15:47.376Z,97407.59
2022-09-21T12:19:24.575Z,97406.78
2022-09-21T12:22:33.631Z,97400.41
2022-09-21T12:25:41.601Z,97405.16
2022-09-21T12:28:46.107Z,97399.84
2022-09-21T12:31:58.943Z,97406.19
2022-09-21T12:35:04.818Z,97408.69
2022-09-21T12:38:30.461Z,97403.63
2022-09-21T12:42:01.979Z,97404.41
2022-09-21T12:45:24.049Z,97406.53
2022-09-21T12:48:36.464Z,97409.66
2022-09-21T12:51:43.755Z,97405.00
2022-09-21T12:55:01.835Z,97398.56
2022-09-21T12:58:45.752Z,97397.69
2022-09-21T13:02:05.629Z,97400.16
2022-09-21T13:05:43.195Z,97392.63
2022-09-21T13:08:44.884Z,97392.66
2022-09-21T13:12:00.054Z,97390.53
2022-09-21T13:15:14.254Z,97393.97
2022-09-21T13:18:24.706Z,97398.94
2022-09-21T13:21:29.984Z,97386.47
2022-09-21T13:24:30.585Z,97388.34
2022-09-21T13:28:13.999Z,97379.28
2022-09-21T13:31:39.773Z,97387.84
2022-09-21T13:34:41.867Z,97375.94
2022-09-21T13:37:40.083Z,97381.13
2022-09-21T13:40:37.828Z,97373.22
2022-09-21T13:43:58.561Z,97364.72
2022-09-21T13:46:58.483Z,97366.81
2022-09-21T13:50:00.514Z,97360.75
2022-09-21T13:53:09.837Z,97359.50
2022-09-21T13:56:26.532Z,97356.72
2022-09-21T13:59:26.647Z,97352.41
2022-09-21T14:02:35.130Z,97355.09
2022-09-21T14:05:46.327Z,97367.84
2022-09-21T14:09:01.604Z,97356.41
2022-09-21T14:12:06.599Z,97358.47
2022-09-21T14:15:11.236Z,97352.31
2022-09-21T14:18:20.386Z,97359.19
2022-09-21T14:21:19.272Z,97357.56
2022-09-21T14:24:34.076Z,97356.50
2022-09-21T14:27:51.631Z,97354.41
2022-09-21T14:30:55.488Z,97353.88
2022-09-21T14:34:00.160Z,97347.41
2022-09-21T14:37:02.990Z,97354.47
2022-09-21T14:40:16.579Z,97352.75
2022-09-21T14:43:20.879Z,97360.72
2022-09-21T14:46:36.112Z,97353.38
2022-09-21T14:49:59.958Z,97355.06
2022-09-21T14:53:44.774Z,97347.66
2022-09-21T14:57:03.877Z,97352.00
2022-09-21T15:00:24.500Z,97347.00
2022-09-21T15:03:40.850Z,97350.19
2022-09-21T15:07:38.606Z,97342.81
2022-09-21T15:10:56.569Z,97344.78
2022-09-21T15:14:11.155Z,97340.63
2022-09-21T15:17:29.345Z,97341.22
2022-09-21T15:20:29.548Z,97339.69
2022-09-21T15:23:26.874Z,97335.19
2022-09-21T15:26:29.302Z,97339.94
2022-09-21T15:29:31.870Z,97334.22
2022-09-21T15:32:44.527Z,97342.13
2022-09-21T15:35:46.766Z,97350.88
2022-09-21T15:39:53.690Z,97346.00
2022-09-21T15:43:06.499Z,97346.19
2022-09-21T15:46:12.180Z,97341.13
2022-09-21T15:49:15.413Z,97335.47
2022-09-21T15:52:22.461Z,97351.25
2022-09-21T15:55:22.109Z,97342.72
2022-09-21T15:58:38.886Z,97334.34
2022-09-21T16:01:50.590Z,97329.59
2022-09-21T16:04:50.039Z,97334.59
2022-09-21T16:07:47.034Z,97336.72
2022-09-21T16:10:44.650Z,97329.50
2022-09-21T16:14:02.457Z,97342.72
2022-09-21T16:17:28.318Z,97342.63
2022-09-21T16:20:37.084Z,97343.34
2022-09-21T16:23:33.969Z,97354.75
2022-09-21T16:26:37.503Z,97352.50
2022-09-21T16:29:42.968Z,97345.09
2022-09-21T16:32:40.281Z,97345.53
2022-09-21T16:35:40.437Z,97347.94
2022-09-21T16:38:37.618Z,97347.53
2022-09-21T16:41:40.683Z,97354.31
2022-09-21T16:44:44.381Z,97350.94
2022-09-21T16:47:41.179Z,97354.75
2022-09-21T16:50:38.091Z,97360.53
2022-09-21T16:53:34.885Z,97363.28
2022-09-21T16:56:32.472Z,97361.47
2022-09-21T16:59:29.849Z,97360.22
2022-09-21T17:02:26.803Z,97363.09
2022-09-21T17:05:24.701Z,97365.28
2022-09-21T17:08:21.842Z,97366.44
2022-09-21T17:11:20.156Z,97367.00
2022-09-21T17:14:19.144Z,97356.06
2022-09-21T17:17:23.614Z,97361.94
2022-09-21T17:20:36.309Z,97368.91
2022-09-21T17:23:33.107Z,97371.41
2022-09-21T17:26:31.192Z,97363.91
2022-09-21T17:29:30.030Z,97369.03
2022-09-21T17:32:26.957Z,97375.19
2022-09-21T17:35:39.033Z,97376.00
2022-09-21T17:38:35.829Z,97374.13
2022-09-21T17:41:53.344Z,97379.22
2022-09-21T17:45:01.782Z,97383.50
2022-09-21T17:47:58.941Z,97389.13
2022-09-21T17:50:56.227Z,97394.47
2022-09-21T17:53:53.319Z,97385.94
2022-09-21T17:57:29.682Z,97393.41
2022-09-21T18:00:51.022Z,97395.81
2022-09-21T18:03:48.605Z,97390.97
2022-09-21T18:06:46.657Z,97395.00
2022-09-21T18:09:43.817Z,97397.13
2022-09-21T18:13:28.258Z,97401.91
2022-09-21T18:16:51.607Z,97403.50
2022-09-21T18:20:41.717Z,97399.75
2022-09-21T18:24:07.493Z,97404.81
2022-09-21T18:27:04.835Z,97399.22
2022-09-21T18:30:03.340Z,97411.72
2022-09-21T18:33:48.202Z,97403.19
2022-09-21T18:37:01.825Z,97412.72
2022-09-21T18:40:13.893Z,97421.78
2022-09-21T18:43:51.173Z,97418.59
2022-09-21T18:47:15.595Z,97414.34
2022-09-21T18:50:59.945Z,97408.66
2022-09-21T18:53:58.157Z,97423.84
2022-09-21T18:56:55.976Z,97420.81
2022-09-21T18:59:53.131Z,97424.47
2022-09-21T19:03:12.658Z,97419.84
2022-09-21T19:06:53.265Z,97418.72
2022-09-21T19:10:29.320Z,97427.47
2022-09-21T19:14:12.543Z,97436.78
2022-09-21T19:18:07.541Z,97430.25
2022-09-21T19:21:14.046Z,97427.63
2022-09-21T19:25:00.664Z,97435.25
2022-09-21T19:28:01.022Z,97425.94
2022-09-21T19:31:14.176Z,97434.50
2022-09-21T19:34:19.482Z,97433.44
2022-09-21T19:37:16.377Z,97425.31
2022-09-21T19:40:19.815Z,97433.31
2022-09-21T19:43:48.681Z,97439.09
2022-09-21T19:47:02.763Z,97439.16
2022-09-21T19:50:28.364Z,97438.13
2022-09-21T19:53:44.128Z,97436.44
2022-09-21T19:57:08.996Z,97439.47
2022-09-21T20:00:10.591Z,97435.19
2022-09-21T20:03:36.158Z,97435.97
2022-09-21T20:06:56.157Z,97432.75
2022-09-21T20:10:45.602Z,97435.06
2022-09-21T20:14:22.805Z,97432.97
2022-09-21T20:17:40.007Z,97429.53
2022-09-21T20:20:38.022Z,97423.88
2022-09-21T20:23:36.131Z,97436.69
2022-09-21T20:26:33.016Z,97450.81
2022-09-21T20:29:29.845Z,97451.00
2022-09-21T20:32:26.750Z,97440.25
2022-09-21T20:35:28.887Z,97444.50
2022-09-21T20:38:25.697Z,97450.56
2022-09-21T20:41:24.409Z,97439.94
2022-09-21T20:44:21.985Z,97450.47
2022-09-21T20:47:20.386Z,97450.13
2022-09-21T20:50:18.139Z,97451.25
2022-09-21T20:53:15.467Z,97452.88
2022-09-21T20:56:13.018Z,97451.50
2022-09-21T20:59:09.843Z,97453.00
2022-09-21T21:02:09.511Z,97450.84
2022-09-21T21:05:08.027Z,97456.41
2022-09-21T21:08:05.184Z,97453.94
2022-09-21T21:11:02.319Z,97458.19
2022-09-21T21:13:59.160Z,97451.66
2022-09-21T21:16:56.227Z,97453.38
2022-09-21T21:19:53.352Z,97444.72
2022-09-21T21:22:51.834Z,97443.13
2022-09-21T21:25:49.043Z,97442.03
2022-09-21T21:28:45.878Z,97440.75
2022-09-21T21:31:42.741Z,97445.09
2022-09-21T21:34:39.642Z,97444.41
2022-09-21T21:37:37.156Z,97440.97
2022-09-21T21:40:36.050Z,97443.41
2022-09-21T21:43:36.048Z,97445.09
2022-09-21T21:46:32.962Z,97443.63
2022-09-21T21:49:29.999Z,97438.84
2022-09-21T21:52:26.837Z,97450.94
2022-09-21T21:55:23.641Z,97439.03
2022-09-21T21:58:20.466Z,97437.41
2022-09-21T22:01:21.135Z,97440.91
2022-09-21T22:04:18.004Z,97444.06
2022-09-21T22:07:14.819Z,97432.81
2022-09-21T22:10:11.607Z,97440.09
2022-09-21T22:13:08.413Z,97436.91
2022-09-21T22:16:15.987Z,97440.53
2022-09-21T22:19:12.863Z,97436.50
2022-09-21T22:22:09.906Z,97435.00
2022-09-21T22:25:08.234Z,97430.09
2022-09-21T22:28:05.475Z,97429.50
2022-09-21T22:31:03.568Z,97427.91
2022-09-21T22:34:00.570Z,97433.94
2022-09-21T22:36:59.332Z,97426.56
2022-09-21T22:39:56.382Z,97425.66
2022-09-21T22:42:53.192Z,97419.31
2022-09-21T22:45:50.031Z,97429.69
2022-09-21T22:48:47.756Z,97415.91
2022-09-21T22:51:44.563Z,97425.91
2022-09-21T22:54:41.365Z,97422.53
2022-09-21T22:57:38.186Z,97421.56
2022-09-21T23:00:35.133Z,97437.97
2022-09-21T23:03:32.083Z,97424.63
2022-09-21T23:06:34.941Z,97421.75
2022-09-21T23:09:31.752Z,97423.25
2022-09-21T23:12:28.568Z,97417.88
2022-09-21T23:15:25.407Z,97408.88
2022-09-21T23:18:22.226Z,97406.47
2022-09-21T23:21:22.972Z,97421.19
2022-09-21T23:24:20.212Z,97411.03
2022-09-21T23:27:17.017Z,97421.09
2022-09-21T23:30:14.149Z,97421.25
2022-09-21T23:33:10.979Z,97418.19
2022-09-21T23:36:09.859Z,97418.09
2022-09-21T23:39:09.987Z,97422.69
2022-09-21T23:42:07.201Z,97408.69
2022-09-21T23:45:05.008Z,97407.19
2022-09-21T23:48:01.990Z,97413.53
2022-09-21T23:50:59.830Z,97415.53
2022-09-21T23:53:58.001Z,97412.72
2022-09-21T23:56:54.822Z,97402.22
2022-09-21T23:59:52.780Z,97401.44
